Time;durP1;ratioP1;P1;durP2;ratioP2;P2;SDS_P1;SDS_P2;PMS_P1;PMS_P2;Temp;Humidity;BMP_temperature;BMP_pressure;BME280_temperature;BME280_humidity;BME280_pressure;Samples;Min_cycle;Max_cycle;Signal;HPM_P1;HPM_P2
2021/07/03 00:01:28;;;;;;;5.47;3.70;;;18.10;73.20;;;;;;4917877;29;20599;-90
2021/07/03 00:03:53;;;;;;;4.05;3.30;;;18.00;73.00;;;;;;4918445;29;20048;-92
2021/07/03 00:06:19;;;;;;;5.65;3.58;;;18.00;73.10;;;;;;4918252;29;20024;-91
2021/07/03 00:08:44;;;;;;;5.72;4.03;;;17.90;73.20;;;;;;4918598;29;20024;-92
2021/07/03 00:11:10;;;;;;;8.18;5.57;;;17.80;73.40;;;;;;4916891;29;20392;-89
2021/07/03 00:13:37;;;;;;;7.10;4.93;;;17.80;73.40;;;;;;4917295;29;20031;-89
2021/07/03 00:16:03;;;;;;;5.88;4.38;;;17.80;73.30;;;;;;4917468;29;20028;-91
2021/07/03 00:18:28;;;;;;;5.93;4.28;;;17.80;73.20;;;;;;4916680;29;20040;-90
2021/07/03 00:20:54;;;;;;;6.18;4.00;;;17.90;73.20;;;;;;4917759;29;20012;-91
2021/07/03 00:23:20;;;;;;;5.47;4.40;;;17.90;73.20;;;;;;4917733;29;20484;-90
2021/07/03 00:25:45;;;;;;;5.75;3.67;;;17.80;73.20;;;;;;4917765;29;20531;-91
2021/07/03 00:28:11;;;;;;;6.63;4.30;;;17.80;73.20;;;;;;4915887;29;20123;-91
2021/07/03 00:30:37;;;;;;;6.20;4.65;;;17.80;73.20;;;;;;4915997;29;20511;-91
2021/07/03 00:33:02;;;;;;;7.55;4.70;;;17.70;73.10;;;;;;4912237;29;20635;-90
2021/07/03 00:35:28;;;;;;;5.57;3.95;;;17.70;73.10;;;;;;4910839;29;20394;-91
2021/07/03 00:37:54;;;;;;;6.00;4.22;;;17.60;73.30;;;;;;4917575;29;20028;-92
2021/07/03 00:40:20;;;;;;;5.88;4.10;;;17.50;73.60;;;;;;4917627;29;20420;-90
2021/07/03 00:42:45;;;;;;;6.32;4.32;;;17.50;73.70;;;;;;4916274;29;20080;-89
2021/07/03 00:45:11;;;;;;;5.75;4.38;;;17.50;73.70;;;;;;4917445;29;20052;-90
2021/07/03 00:47:37;;;;;;;6.10;4.00;;;17.50;73.70;;;;;;4917678;29;20443;-90
2021/07/03 00:50:09;;;;;;;6.85;4.55;;;17.50;73.70;;;;;;4907750;29;20021;-91
2021/07/03 00:52:36;;;;;;;5.93;4.30;;;17.40;73.80;;;;;;4911811;29;20063;-91
2021/07/03 00:55:01;;;;;;;6.65;4.70;;;17.30;74.00;;;;;;4917056;29;20032;-90
2021/07/03 00:57:27;;;;;;;6.65;4.97;;;17.30;74.00;;;;;;4916951;29;20034;-90
2021/07/03 00:59:53;;;;;;;8.60;5.53;;;17.30;73.80;;;;;;4917090;29;20063;-90
2021/07/03 01:02:19;;;;;;;8.45;5.45;;;17.30;73.80;;;;;;4916609;29;20051;-91
2021/07/03 01:04:45;;;;;;;8.00;5.40;;;17.30;73.70;;;;;;4916682;29;20017;-90
2021/07/03 01:07:11;;;;;;;9.77;5.30;;;17.30;73.70;;;;;;4916996;29;20036;-91
2021/07/03 01:09:38;;;;;;;9.52;6.18;;;17.30;74.10;;;;;;4917147;29;20024;-89
2021/07/03 01:12:05;;;;;;;7.68;5.82;;;17.30;73.80;;;;;;4916542;29;20391;-90
2021/07/03 01:14:31;;;;;;;8.18;5.63;;;17.20;73.70;;;;;;4915649;29;20051;-91
2021/07/03 01:16:57;;;;;;;9.25;6.30;;;17.20;73.70;;;;;;4917000;29;20084;-91
2021/07/03 01:19:23;;;;;;;9.68;6.07;;;17.30;73.80;;;;;;4916891;29;20107;-91
2021/07/03 01:21:53;;;;;;;8.20;5.30;;;17.20;73.70;;;;;;4915093;29;20437;-91
2021/07/03 01:24:19;;;;;;;7.35;5.28;;;17.20;73.70;;;;;;4916316;29;20036;-90
2021/07/03 01:26:57;;;;;;;8.15;5.15;;;17.20;73.90;;;;;;4916429;29;20016;-91
2021/07/03 01:29:25;;;;;;;6.97;5.47;;;17.10;74.00;;;;;;4916161;29;20024;-90
2021/07/03 01:31:53;;;;;;;8.23;5.32;;;17.10;74.10;;;;;;4915500;29;20029;-86
2021/07/03 01:34:21;;;;;;;9.38;5.95;;;17.00;74.20;;;;;;4914549;29;20056;-86
2021/07/03 01:36:47;;;;;;;8.23;5.80;;;17.00;74.30;;;;;;4914867;29;20115;-87
2021/07/03 01:39:13;;;;;;;8.27;5.50;;;17.00;74.20;;;;;;4916232;29;20127;-87
2021/07/03 01:41:39;;;;;;;8.73;5.97;;;16.90;74.30;;;;;;4915420;29;20035;-88
2021/07/03 01:44:05;;;;;;;8.73;5.90;;;16.90;74.50;;;;;;4915988;29;20024;-86
2021/07/03 01:46:31;;;;;;;8.13;5.57;;;16.90;74.50;;;;;;4914137;29;20028;-87
2021/07/03 01:49:00;;;;;;;7.90;5.55;;;16.90;74.60;;;;;;4914959;29;20024;-86
2021/07/03 01:51:26;;;;;;;8.77;5.30;;;16.90;74.50;;;;;;4914739;29;20032;-87
2021/07/03 01:53:52;;;;;;;8.57;6.00;;;16.90;74.40;;;;;;4913756;29;20032;-88
2021/07/03 01:56:18;;;;;;;8.25;5.93;;;16.90;74.30;;;;;;4916020;29;20151;-89
2021/07/03 01:58:43;;;;;;;8.27;5.43;;;16.90;74.20;;;;;;4915966;29;20531;-88
2021/07/03 02:01:09;;;;;;;8.02;5.80;;;16.90;74.40;;;;;;4915120;29;20046;-89
2021/07/03 02:03:34;;;;;;;10.65;6.32;;;16.80;74.60;;;;;;4915907;29;20024;-89
2021/07/03 02:06:03;;;;;;;8.02;5.93;;;16.80;74.70;;;;;;4915981;29;20243;-89
2021/07/03 02:08:30;;;;;;;9.27;6.35;;;16.80;74.50;;;;;;4915903;29;20024;-87
2021/07/03 02:10:55;;;;;;;8.88;5.75;;;16.80;74.40;;;;;;4915062;29;20047;-87
2021/07/03 02:13:21;;;;;;;9.68;6.57;;;16.80;74.40;;;;;;4914733;29;20032;-86
2021/07/03 02:15:46;;;;;;;7.63;5.32;;;16.80;74.30;;;;;;4914731;29;20032;-87
2021/07/03 02:18:12;;;;;;;8.07;6.00;;;16.80;74.30;;;;;;4915292;29;20044;-87
2021/07/03 02:20:38;;;;;;;9.07;5.63;;;16.80;74.50;;;;;;4915264;29;20035;-88
2021/07/03 02:23:04;;;;;;;9.48;6.18;;;16.70;74.70;;;;;;4914901;29;20439;-87
2021/07/03 02:25:31;;;;;;;9.45;6.03;;;16.70;74.70;;;;;;4915209;29;20032;-88
2021/07/03 02:27:57;;;;;;;8.50;5.82;;;16.70;74.70;;;;;;4914932;29;20165;-88
2021/07/03 02:30:23;;;;;;;9.15;6.35;;;16.60;74.80;;;;;;4914983;29;20597;-88
2021/07/03 02:32:50;;;;;;;9.20;6.45;;;16.60;74.90;;;;;;4914806;29;20028;-88
2021/07/03 02:35:18;;;;;;;7.90;5.80;;;16.60;74.90;;;;;;4914672;29;20028;-89
2021/07/03 02:37:45;;;;;;;9.65;6.55;;;16.50;75.10;;;;;;4915808;29;20029;-89
2021/07/03 02:40:12;;;;;;;8.77;6.57;;;16.60;75.10;;;;;;4915669;29;20051;-88
2021/07/03 02:42:38;;;;;;;8.80;6.32;;;16.60;75.60;;;;;;4915118;29;20030;-89
2021/07/03 02:45:07;;;;;;;9.48;6.57;;;16.60;74.80;;;;;;4914417;29;20446;-89
2021/07/03 02:47:33;;;;;;;7.88;6.03;;;16.60;74.70;;;;;;4915495;29;20028;-90
2021/07/03 02:49:58;;;;;;;11.30;7.47;;;16.60;74.70;;;;;;4916039;29;20034;-89
2021/07/03 02:52:24;;;;;;;10.60;7.68;;;16.60;74.70;;;;;;4914296;29;20062;-90
2021/07/03 02:54:49;;;;;;;9.73;7.00;;;16.60;74.70;;;;;;4915481;29;20122;-90
2021/07/03 02:57:16;;;;;;;9.40;6.28;;;16.50;74.80;;;;;;4915543;29;20024;-88
2021/07/03 02:59:41;;;;;;;9.50;6.93;;;16.50;75.00;;;;;;4914927;29;20480;-88
2021/07/03 03:02:07;;;;;;;10.60;7.13;;;16.40;75.10;;;;;;4911792;29;20100;-87
2021/07/03 03:04:33;;;;;;;12.25;7.40;;;16.40;75.30;;;;;;4910655;29;20577;-88
2021/07/03 03:06:58;;;;;;;9.32;6.72;;;16.40;75.20;;;;;;4915242;29;20071;-89
2021/07/03 03:09:26;;;;;;;10.73;6.95;;;16.40;75.20;;;;;;4913373;29;20052;-88
2021/07/03 03:11:51;;;;;;;14.13;8.63;;;16.40;75.20;;;;;;4912608;29;20491;-88
2021/07/03 03:14:17;;;;;;;13.25;8.68;;;16.40;75.20;;;;;;4914175;29;20024;-87
2021/07/03 03:16:42;;;;;;;11.07;7.78;;;16.50;75.30;;;;;;4914732;29;20024;-87
2021/07/03 03:19:08;;;;;;;10.63;7.40;;;16.50;75.30;;;;;;4914273;29;20260;-88
2021/07/03 03:21:34;;;;;;;13.05;8.23;;;16.50;75.30;;;;;;4913911;29;20028;-87
2021/07/03 03:23:59;;;;;;;14.25;8.73;;;16.50;75.40;;;;;;4914127;29;20757;-89
2021/07/03 03:26:25;;;;;;;13.32;8.13;;;16.50;75.30;;;;;;4915296;29;20079;-88
2021/07/03 03:28:50;;;;;;;12.07;8.27;;;16.60;75.30;;;;;;4918345;29;20023;-89
2021/07/03 03:31:16;;;;;;;11.75;8.55;;;16.60;75.30;;;;;;4916756;29;20455;-88
2021/07/03 03:33:41;;;;;;;13.02;8.52;;;16.60;75.30;;;;;;4917803;29;20047;-89
2021/07/03 03:36:07;;;;;;;13.57;8.85;;;16.60;75.40;;;;;;4916824;29;20091;-88
2021/07/03 03:38:33;;;;;;;13.85;9.40;;;16.70;75.40;;;;;;4917114;29;20047;-88
2021/07/03 03:40:58;;;;;;;12.90;8.57;;;16.70;75.40;;;;;;4916660;29;20027;-89
2021/07/03 03:43:24;;;;;;;14.15;8.95;;;16.80;75.40;;;;;;4917589;29;20539;-89
2021/07/03 03:45:49;;;;;;;15.60;9.60;;;16.80;75.30;;;;;;4901498;29;20515;-89
2021/07/03 03:48:15;;;;;;;15.18;9.73;;;16.90;75.40;;;;;;4899752;29;20043;-91
2021/07/03 03:50:41;;;;;;;13.88;9.10;;;17.00;75.40;;;;;;4900415;29;20067;-93
2021/07/03 03:53:06;;;;;;;13.68;9.18;;;17.00;75.30;;;;;;4899740;29;20040;-92
2021/07/03 03:55:32;;;;;;;15.48;9.63;;;17.10;75.40;;;;;;4898710;29;20116;-91
2021/07/03 03:57:57;;;;;;;13.73;8.93;;;17.10;75.40;;;;;;4900352;29;20054;-91
2021/07/03 04:00:23;;;;;;;14.57;9.02;;;17.20;75.40;;;;;;4900207;29;20079;-91
2021/07/03 04:02:49;;;;;;;16.30;10.02;;;17.20;75.40;;;;;;4898440;29;20027;-90
2021/07/03 04:05:15;;;;;;;13.75;9.40;;;17.30;75.40;;;;;;4899537;29;20036;-91
2021/07/03 04:07:42;;;;;;;15.85;9.35;;;17.30;75.40;;;;;;4899550;29;20029;-89
2021/07/03 04:10:10;;;;;;;16.45;10.95;;;17.40;75.30;;;;;;4899396;29;20031;-92
2021/07/03 04:12:36;;;;;;;18.40;11.85;;;17.50;75.30;;;;;;4899621;29;20117;-92
2021/07/03 04:15:03;;;;;;;16.92;10.60;;;17.50;75.30;;;;;;4899673;29;20032;-92
2021/07/03 04:17:29;;;;;;;14.35;8.73;;;17.60;75.40;;;;;;4898726;29;20072;-91
2021/07/03 04:19:54;;;;;;;14.80;9.95;;;17.60;75.30;;;;;;4899714;29;20029;-91
2021/07/03 04:22:20;;;;;;;18.98;12.52;;;17.70;75.40;;;;;;4899345;29;20033;-92
2021/07/03 04:24:46;;;;;;;18.45;11.70;;;17.70;75.50;;;;;;4899283;29;20025;-93
2021/07/03 04:27:12;;;;;;;16.50;10.55;;;17.70;75.60;;;;;;4899581;29;20036;-92
2021/07/03 04:29:38;;;;;;;16.40;10.65;;;17.80;75.60;;;;;;4898570;29;20025;-93
2021/07/03 04:32:04;;;;;;;16.80;10.98;;;17.80;75.70;;;;;;4899134;29;20552;-89
2021/07/03 04:34:30;;;;;;;15.25;10.25;;;17.80;75.80;;;;;;4898113;29;20115;-90
2021/07/03 04:36:57;;;;;;;14.90;10.38;;;17.80;75.80;;;;;;4897256;29;20032;-90
2021/07/03 04:39:23;;;;;;;23.17;15.25;;;17.90;75.80;;;;;;4897356;29;20512;-89
2021/07/03 04:41:49;;;;;;;16.88;11.30;;;17.80;76.10;;;;;;4897999;29;20056;-90
2021/07/03 04:44:16;;;;;;;17.90;11.77;;;17.80;76.20;;;;;;4898916;29;20029;-90
2021/07/03 04:46:42;;;;;;;18.30;12.27;;;17.80;76.40;;;;;;4897368;29;20028;-89
2021/07/03 04:49:08;;;;;;;17.90;11.82;;;17.80;76.50;;;;;;4898381;29;20024;-89
2021/07/03 04:51:34;;;;;;;17.10;11.45;;;17.70;76.70;;;;;;4897674;29;20040;-89
2021/07/03 04:53:59;;;;;;;16.63;10.70;;;17.80;76.60;;;;;;4897818;29;20036;-90
2021/07/03 04:56:25;;;;;;;12.55;8.50;;;17.80;76.50;;;;;;4898368;29;20033;-91
2021/07/03 04:58:50;;;;;;;16.13;10.43;;;18.00;76.20;;;;;;4898360;29;20060;-89
2021/07/03 05:01:16;;;;;;;16.50;11.88;;;18.30;75.60;;;;;;4898156;29;20059;-90
2021/07/03 05:03:41;;;;;;;16.05;10.95;;;18.60;74.90;;;;;;4897850;29;20033;-90
2021/07/03 05:06:07;;;;;;;18.70;12.75;;;18.90;74.20;;;;;;4898042;29;20031;-90
2021/07/03 05:08:33;;;;;;;16.80;10.52;;;19.00;73.70;;;;;;4896643;29;20461;-90
2021/07/03 05:10:59;;;;;;;15.32;10.05;;;18.90;73.70;;;;;;4897845;29;20040;-90
2021/07/03 05:13:24;;;;;;;16.95;11.35;;;18.80;73.90;;;;;;4897817;29;20108;-90
2021/07/03 05:15:50;;;;;;;15.07;10.27;;;18.70;74.10;;;;;;4897753;29;20076;-90
2021/07/03 05:18:15;;;;;;;14.80;10.48;;;18.70;74.20;;;;;;4897570;29;20024;-89
2021/07/03 05:20:41;;;;;;;15.38;10.52;;;18.70;74.30;;;;;;4896815;29;20059;-89
2021/07/03 05:23:06;;;;;;;15.95;10.07;;;18.70;74.40;;;;;;4897478;29;20047;-90
2021/07/03 05:25:32;;;;;;;16.33;10.05;;;18.90;74.20;;;;;;4897514;29;20024;-89
2021/07/03 05:27:58;;;;;;;14.40;10.13;;;19.20;73.60;;;;;;4897656;29;20036;-90
2021/07/03 05:30:23;;;;;;;15.18;9.75;;;19.50;72.60;;;;;;4897835;29;20107;-89
2021/07/03 05:32:49;;;;;;;18.15;11.90;;;19.60;72.10;;;;;;4896935;29;20036;-90
2021/07/03 05:35:15;;;;;;;16.08;11.18;;;19.80;71.80;;;;;;4897159;29;20054;-90
2021/07/03 05:37:43;;;;;;;21.75;14.48;;;20.00;71.20;;;;;;4897471;29;20032;-89
2021/07/03 05:40:12;;;;;;;20.73;13.80;;;19.90;71.20;;;;;;4896641;29;20024;-91
2021/07/03 05:42:38;;;;;;;20.50;13.40;;;20.00;71.10;;;;;;4896397;29;20025;-90
2021/07/03 05:45:04;;;;;;;19.50;13.18;;;19.90;71.10;;;;;;4899342;29;20398;-90
2021/07/03 05:47:31;;;;;;;22.17;14.80;;;20.20;70.80;;;;;;4910617;29;20036;-89
2021/07/03 05:49:56;;;;;;;25.27;16.30;;;20.50;70.60;;;;;;4914487;29;20020;-89
2021/07/03 05:52:22;;;;;;;22.75;15.30;;;20.80;69.80;;;;;;4912907;29;20545;-88
2021/07/03 05:54:47;;;;;;;18.20;12.40;;;21.00;69.40;;;;;;4915570;29;20095;-90
2021/07/03 05:57:13;;;;;;;24.83;15.98;;;21.00;69.20;;;;;;4915259;29;20039;-89
2021/07/03 05:59:40;;;;;;;18.65;12.10;;;20.90;69.30;;;;;;4915243;29;20027;-89
2021/07/03 06:02:07;;;;;;;23.75;15.60;;;20.90;69.40;;;;;;4913125;29;20029;-90
2021/07/03 06:04:33;;;;;;;22.58;15.48;;;21.00;69.20;;;;;;4914014;29;20154;-89
2021/07/03 06:06:58;;;;;;;22.63;15.20;;;21.10;69.10;;;;;;4916059;29;20024;-89
2021/07/03 06:09:24;;;;;;;25.70;16.80;;;21.10;69.10;;;;;;4915976;29;20076;-90
2021/07/03 06:11:49;;;;;;;30.20;18.48;;;21.10;68.80;;;;;;4915608;29;20044;-88
2021/07/03 06:14:15;;;;;;;21.05;14.52;;;21.00;68.70;;;;;;4915705;29;20028;-89
2021/07/03 06:16:41;;;;;;;20.98;14.18;;;21.10;68.90;;;;;;4915833;29;20136;-90
2021/07/03 06:19:06;;;;;;;17.35;12.68;;;21.20;68.70;;;;;;4916347;29;20031;-92
2021/07/03 06:21:32;;;;;;;15.75;10.80;;;21.30;68.70;;;;;;4916372;29;20072;-91
2021/07/03 06:23:58;;;;;;;16.88;10.75;;;21.50;68.60;;;;;;4915683;29;20020;-91
2021/07/03 06:26:23;;;;;;;20.38;14.50;;;21.60;68.20;;;;;;4915174;29;20030;-93
2021/07/03 06:28:49;;;;;;;13.40;9.10;;;21.60;67.90;;;;;;4915383;29;20391;-92
2021/07/03 06:31:17;;;;;;;17.48;12.63;;;21.70;67.90;;;;;;4916583;29;20044;-95
2021/07/03 06:33:42;;;;;;;16.65;12.18;;;21.80;67.60;;;;;;4916629;29;20020;-94
2021/07/03 06:36:08;;;;;;;14.23;10.75;;;21.80;67.50;;;;;;4915211;29;20040;-91
2021/07/03 06:38:33;;;;;;;14.70;9.48;;;22.00;67.20;;;;;;4915377;29;20124;-91
2021/07/03 06:40:59;;;;;;;15.05;10.93;;;22.00;67.00;;;;;;4914117;29;20031;-92
2021/07/03 06:43:25;;;;;;;18.85;13.07;;;22.10;66.90;;;;;;4914958;29;20024;-91
2021/07/03 06:45:50;;;;;;;19.02;13.05;;;22.10;66.70;;;;;;4915178;29;20039;-91
2021/07/03 06:48:16;;;;;;;15.45;10.52;;;22.10;66.50;;;;;;4915255;29;20075;-88
2021/07/03 06:50:42;;;;;;;12.70;8.48;;;22.00;66.30;;;;;;4913831;29;20074;-90
2021/07/03 06:53:07;;;;;;;14.45;10.35;;;22.00;66.50;;;;;;4914487;29;20120;-89
2021/07/03 06:55:33;;;;;;;16.30;11.32;;;21.90;66.60;;;;;;4914361;29;20471;-88
2021/07/03 06:57:58;;;;;;;21.60;13.48;;;21.90;67.00;;;;;;4913863;29;20435;-89
2021/07/03 07:00:25;;;;;;;15.50;11.13;;;21.90;66.80;;;;;;4914911;29;20056;-90
2021/07/03 07:02:50;;;;;;;16.73;12.27;;;21.90;67.00;;;;;;4916329;29;20023;-90
2021/07/03 07:05:16;;;;;;;13.82;10.20;;;21.90;66.70;;;;;;4918720;29;20032;-89
2021/07/03 07:07:41;;;;;;;14.52;10.45;;;22.00;67.20;;;;;;4918263;29;20035;-89
2021/07/03 07:10:08;;;;;;;13.43;9.75;;;22.10;66.60;;;;;;4917410;29;20031;-87
2021/07/03 07:12:33;;;;;;;16.77;12.77;;;22.30;66.50;;;;;;4914413;29;20043;-88
2021/07/03 07:14:59;;;;;;;16.52;12.40;;;22.40;65.90;;;;;;4914547;29;20035;-91
2021/07/03 07:17:41;;;;;;;17.42;12.75;;;22.50;65.60;;;;;;4917360;29;20028;-90
2021/07/03 07:20:07;;;;;;;14.43;11.07;;;22.60;65.10;;;;;;4917766;29;20025;-88
2021/07/03 07:22:33;;;;;;;18.92;13.07;;;22.70;64.80;;;;;;4917100;29;20027;-88
2021/07/03 07:24:59;;;;;;;14.52;10.57;;;22.70;64.10;;;;;;4916285;29;20008;-89
2021/07/03 07:27:24;;;;;;;17.83;13.75;;;22.90;64.30;;;;;;4917954;29;20569;-88
2021/07/03 07:29:50;;;;;;;13.93;10.75;;;22.90;63.10;;;;;;4916715;29;20017;-88
2021/07/03 07:32:16;;;;;;;14.02;11.00;;;22.90;63.60;;;;;;4913892;29;20032;-88
2021/07/03 07:34:41;;;;;;;18.27;12.70;;;23.00;63.30;;;;;;4900100;29;20040;-88
2021/07/03 07:37:09;;;;;;;12.82;9.88;;;23.00;63.20;;;;;;4896084;29;20437;-88
2021/07/03 07:39:34;;;;;;;18.30;12.48;;;23.10;63.50;;;;;;4897743;29;20028;-88
2021/07/03 07:42:00;;;;;;;12.82;9.57;;;23.20;63.40;;;;;;4898316;29;20076;-88
2021/07/03 07:44:26;;;;;;;14.13;10.48;;;23.50;63.30;;;;;;4898514;29;20057;-88
2021/07/03 07:46:51;;;;;;;17.98;12.35;;;23.50;63.10;;;;;;4896810;29;20547;-88
2021/07/03 07:49:17;;;;;;;17.40;13.73;;;23.50;62.80;;;;;;4898607;29;20035;-88
2021/07/03 07:51:42;;;;;;;19.50;15.25;;;23.60;62.70;;;;;;4898151;29;20044;-91
2021/07/03 07:54:08;;;;;;;17.55;13.25;;;23.50;61.60;;;;;;4898553;29;20033;-88
2021/07/03 07:56:33;;;;;;;18.48;13.80;;;23.60;62.30;;;;;;4898459;29;20484;-86
2021/07/03 07:58:59;;;;;;;16.17;12.45;;;23.60;62.10;;;;;;4898569;29;20084;-88
2021/07/03 08:01:25;;;;;;;12.35;9.05;;;23.70;62.20;;;;;;4897878;29;20114;-88
2021/07/03 08:03:50;;;;;;;15.10;11.85;;;23.80;62.20;;;;;;4907254;29;20024;-88
2021/07/03 08:06:16;;;;;;;16.60;12.60;;;23.90;62.00;;;;;;4916002;29;20539;-88
2021/07/03 08:08:42;;;;;;;16.80;13.30;;;24.00;61.50;;;;;;4917164;29;20451;-88
2021/07/03 08:11:08;;;;;;;15.00;11.77;;;24.10;61.20;;;;;;4917027;29;20036;-89
2021/07/03 08:13:34;;;;;;;19.73;15.25;;;24.10;61.30;;;;;;4910156;29;20017;-88
2021/07/03 08:16:00;;;;;;;18.55;13.82;;;24.20;61.10;;;;;;4898183;29;20032;-88
2021/07/03 08:18:26;;;;;;;22.48;17.52;;;24.30;60.70;;;;;;4907491;29;20028;-88
2021/07/03 08:20:53;;;;;;;19.52;15.80;;;24.10;60.50;;;;;;4912875;29;20403;-89
2021/07/03 08:23:18;;;;;;;18.23;14.15;;;24.00;60.70;;;;;;4908417;29;20723;-89
2021/07/03 08:25:44;;;;;;;13.48;10.52;;;24.10;60.80;;;;;;4904239;29;20052;-88
2021/07/03 08:28:10;;;;;;;13.38;10.25;;;24.40;60.90;;;;;;4912645;29;20028;-89
2021/07/03 08:30:36;;;;;;;13.18;10.02;;;24.50;60.30;;;;;;4911330;29;20032;-88
2021/07/03 08:33:02;;;;;;;19.45;14.90;;;24.60;60.20;;;;;;4916098;29;20055;-89
2021/07/03 08:35:28;;;;;;;18.55;14.55;;;24.70;59.60;;;;;;4913797;29;20038;-87
2021/07/03 08:37:53;;;;;;;16.48;12.80;;;24.60;58.90;;;;;;4915195;29;20039;-88
2021/07/03 08:40:20;;;;;;;14.10;10.90;;;24.60;59.10;;;;;;4916689;29;20024;-88
2021/07/03 08:42:46;;;;;;;12.80;9.95;;;24.80;59.80;;;;;;4914131;29;20028;-88
2021/07/03 08:45:13;;;;;;;12.93;10.00;;;24.80;58.90;;;;;;4916119;29;20040;-89
2021/07/03 08:47:40;;;;;;;11.60;8.60;;;24.90;58.30;;;;;;4916040;29;20032;-88
2021/07/03 08:50:08;;;;;;;10.38;7.40;;;24.90;58.20;;;;;;4916161;29;20416;-89
2021/07/03 08:52:34;;;;;;;13.88;11.13;;;25.00;57.70;;;;;;4915132;29;20036;-87
2021/07/03 08:55:05;;;;;;;12.25;9.75;;;25.00;57.60;;;;;;4910419;29;20032;-88
2021/07/03 08:57:31;;;;;;;13.37;9.27;;;25.10;57.70;;;;;;4897351;29;20033;-88
2021/07/03 08:59:58;;;;;;;10.50;8.20;;;25.20;57.40;;;;;;4902968;29;20378;-89
2021/07/03 09:02:35;;;;;;;14.90;12.10;;;25.30;57.20;;;;;;4912584;29;20064;-89
2021/07/03 09:05:01;;;;;;;12.00;9.65;;;25.10;56.00;;;;;;4916403;29;20028;-88
2021/07/03 09:07:35;;;;;;;11.57;7.97;;;25.10;57.50;;;;;;4915908;29;20036;-87
2021/07/03 09:10:01;;;;;;;11.05;9.00;;;25.20;57.10;;;;;;4916198;29;20071;-89
2021/07/03 09:12:38;;;;;;;9.65;7.68;;;25.50;56.90;;;;;;4914157;29;20040;-89
2021/07/03 09:15:14;;;;;;;10.73;8.10;;;25.60;56.30;;;;;;4915444;29;20028;-88
2021/07/03 09:17:54;;;;;;;9.90;6.70;;;25.50;55.60;;;;;;4897752;29;20043;-88
2021/07/03 09:20:37;;;;;;;11.00;8.57;;;25.50;55.10;;;;;;4914885;29;20017;-88
2021/07/03 09:23:07;;;;;;;9.35;7.25;;;25.50;54.00;;;;;;4914643;29;20058;-89
2021/07/03 09:25:35;;;;;;;10.10;7.78;;;25.60;54.00;;;;;;4913240;29;20024;-88
2021/07/03 09:28:09;;;;;;;9.07;6.68;;;25.40;52.90;;;;;;4915745;29;20051;-90
2021/07/03 09:30:35;;;;;;;9.68;7.38;;;25.50;53.30;;;;;;4914445;29;20028;-91
2021/07/03 09:33:01;;;;;;;12.15;7.88;;;25.40;52.50;;;;;;4914132;29;20080;-89
2021/07/03 09:35:26;;;;;;;9.40;7.10;;;25.40;53.00;;;;;;4915092;29;20046;-90
2021/07/03 09:37:59;;;;;;;7.95;6.05;;;25.40;52.80;;;;;;4916406;29;20039;-92
2021/07/03 09:40:28;;;;;;;8.18;6.28;;;25.50;52.60;;;;;;4916841;29;20165;-92
2021/07/03 09:43:01;;;;;;;6.22;4.53;;;25.70;52.50;;;;;;4916294;29;20029;-93
2021/07/03 09:45:28;;;;;;;8.98;6.70;;;25.90;52.40;;;;;;4915511;29;20483;-90
2021/07/03 09:48:03;;;;;;;12.02;8.98;;;25.90;51.50;;;;;;4914792;29;20035;-90
2021/07/03 09:50:28;;;;;;;9.52;6.70;;;25.90;51.70;;;;;;4914786;29;20107;-92
2021/07/03 09:53:00;;;;;;;8.55;6.13;;;26.00;52.40;;;;;;4916164;29;20024;-92
2021/07/03 09:55:26;;;;;;;8.98;6.32;;;26.20;52.20;;;;;;4917963;29;20031;-93
2021/07/03 09:57:52;;;;;;;8.98;6.15;;;26.20;51.60;;;;;;4916261;29;20032;-92
2021/07/03 10:00:18;;;;;;;7.18;4.97;;;26.20;50.40;;;;;;4916895;29;20734;-92
2021/07/03 10:02:43;;;;;;;6.47;4.50;;;26.30;50.90;;;;;;4914992;29;20641;-91
2021/07/03 10:05:09;;;;;;;10.63;6.90;;;26.50;50.90;;;;;;4913860;29;20103;-90
2021/07/03 10:07:44;;;;;;;7.00;5.20;;;26.40;50.30;;;;;;4916390;29;20507;-92
2021/07/03 10:10:14;;;;;;;9.52;7.68;;;26.60;50.90;;;;;;4907646;29;20024;-92
2021/07/03 10:12:44;;;;;;;5.32;4.60;;;26.60;50.00;;;;;;4914715;29;20039;-91
2021/07/03 10:15:10;;;;;;;9.30;6.93;;;26.70;50.70;;;;;;4915248;29;20048;-92
2021/07/03 10:17:36;;;;;;;8.27;6.65;;;26.80;50.60;;;;;;4915325;29;20399;-94
2021/07/03 10:20:14;;;;;;;7.63;5.90;;;26.80;49.70;;;;;;4915268;29;20378;-94
2021/07/03 10:22:50;;;;;;;6.78;5.28;;;26.80;50.00;;;;;;4915980;29;20036;-94
2021/07/03 10:25:16;;;;;;;7.72;6.22;;;27.00;49.70;;;;;;4916408;29;20103;-94
2021/07/03 10:27:53;;;;;;;8.00;6.57;;;26.80;49.20;;;;;;4907239;29;20480;-95
2021/07/03 10:30:26;;;;;;;6.18;5.28;;;26.60;49.10;;;;;;4916296;29;20032;-93
2021/07/03 10:33:02;;;;;;;7.10;5.38;;;26.60;49.70;;;;;;4914410;29;20580;-92
2021/07/03 10:35:40;;;;;;;7.40;5.47;;;26.80;50.30;;;;;;4915567;29;20036;-93
2021/07/03 10:38:23;;;;;;;8.10;6.75;;;27.00;50.70;;;;;;4916181;29;20036;-94
2021/07/03 10:40:51;;;;;;;10.95;8.93;;;27.00;50.10;;;;;;4916487;29;20028;-93
2021/07/03 10:43:18;;;;;;;6.35;4.85;;;27.20;49.10;;;;;;4914638;29;20020;-91
2021/07/03 10:45:49;;;;;;;6.10;4.25;;;27.30;49.60;;;;;;4914652;29;20028;-93
2021/07/03 10:48:19;;;;;;;;;;;27.40;49.30;;;;;;4917193;29;20076;-92
2021/07/03 10:50:46;;;;;;;6.55;5.30;;;27.30;47.60;;;;;;4916245;29;19915;-94
2021/07/03 10:53:20;;;;;;;7.63;5.10;;;27.30;48.60;;;;;;4914796;29;20234;-95
2021/07/03 10:55:46;;;;;;;7.78;5.35;;;27.40;48.50;;;;;;4916281;29;20049;-95
2021/07/03 10:58:19;;;;;;;6.97;5.68;;;27.40;48.50;;;;;;4916570;29;20020;-95
2021/07/03 11:00:51;;;;;;;6.95;4.50;;;27.50;48.30;;;;;;4912286;29;20468;-95
2021/07/03 11:03:23;;;;;;;5.65;4.45;;;27.70;48.60;;;;;;4914867;29;20036;-94
2021/07/03 11:05:50;;;;;;;9.55;6.15;;;27.80;47.90;;;;;;4915759;29;20115;-95
2021/07/03 11:08:20;;;;;;;7.78;6.50;;;27.60;47.40;;;;;;4918604;29;20032;-91
2021/07/03 11:10:47;;;;;;;7.40;5.28;;;27.50;48.00;;;;;;4920749;29;20036;-93
2021/07/03 11:13:23;;;;;;;9.38;6.43;;;27.50;48.00;;;;;;4918048;29;20570;-95
2021/07/03 11:15:50;;;;;;;6.00;4.03;;;27.30;47.80;;;;;;4911891;29;20123;-93
2021/07/03 11:18:17;;;;;;;5.13;3.53;;;27.40;48.40;;;;;;4912747;29;20029;-92
2021/07/03 11:20:44;;;;;;;7.43;5.57;;;27.50;48.70;;;;;;4908383;29;20028;-91
2021/07/03 11:23:11;;;;;;;6.30;5.43;;;27.60;47.90;;;;;;4913422;29;20036;-90
2021/07/03 11:25:43;;;;;;;5.95;4.70;;;27.40;47.60;;;;;;4906584;29;20032;-89
2021/07/03 11:28:13;;;;;;;7.97;6.05;;;27.60;48.40;;;;;;4908436;29;20119;-89
2021/07/03 11:30:55;;;;;;;6.13;4.28;;;27.70;47.70;;;;;;4913140;29;20039;-89
2021/07/03 11:33:43;;;;;;;;;;;;;;;;;;;;;
2021/07/03 11:39:26;;;;;;;5.47;4.63;;;27.60;45.90;;;;;;4906312;29;20028;-90
2021/07/03 11:43:03;;;;;;;;;;;;;;;;;;;;;
2021/07/03 11:45:33;;;;;;;4.57;3.40;;;27.90;47.60;;;;;;4899214;29;20032;-91
2021/07/03 11:48:07;;;;;;;5.55;4.40;;;28.20;47.10;;;;;;4914768;29;20087;-90
2021/07/03 11:50:38;;;;;;;5.32;4.07;;;28.40;47.00;;;;;;4913310;29;20067;-90
2021/07/03 11:53:08;;;;;;;5.20;3.88;;;28.50;46.70;;;;;;4914637;29;20028;-89
2021/07/03 11:55:38;;;;;;;5.20;3.40;;;28.80;46.10;;;;;;4916625;29;20124;-89
2021/07/03 11:58:04;;;;;;;4.90;3.30;;;29.20;45.90;;;;;;4912397;29;20492;-87
2021/07/03 12:00:33;;;;;;;4.95;3.75;;;29.60;45.30;;;;;;4910184;29;20031;-88
2021/07/03 12:03:00;;;;;;;3.85;3.30;;;29.80;44.90;;;;;;4909757;29;20043;-90
2021/07/03 12:05:33;;;;;;;3.58;3.20;;;29.80;44.90;;;;;;4914334;29;20046;-93
2021/07/03 12:08:07;;;;;;;5.05;3.78;;;29.70;44.30;;;;;;4917016;29;20052;-89
2021/07/03 12:10:32;;;;;;;5.32;3.95;;;29.40;44.40;;;;;;4916452;29;20043;-91
2021/07/03 12:12:58;;;;;;;4.93;4.13;;;29.50;44.30;;;;;;4916150;29;20028;-91
2021/07/03 12:15:26;;;;;;;4.95;4.18;;;29.40;44.50;;;;;;4916391;29;20581;-90
2021/07/03 12:17:52;;;;;;;6.22;4.65;;;29.50;44.90;;;;;;4916002;29;20432;-90
2021/07/03 12:20:20;;;;;;;4.78;4.25;;;29.60;43.90;;;;;;4915380;29;20047;-89
2021/07/03 12:23:02;;;;;;;5.68;5.03;;;29.30;43.90;;;;;;4915596;29;20039;-93
2021/07/03 12:25:28;;;;;;;5.10;4.07;;;29.00;43.70;;;;;;4917441;29;21545;-91
2021/07/03 12:28:00;;;;;;;5.85;4.18;;;29.00;43.80;;;;;;4916654;29;20052;-93
2021/07/03 12:30:30;;;;;;;6.22;4.18;;;29.10;44.20;;;;;;4920836;29;20035;-93
2021/07/03 12:33:15;;;;;;;3.35;3.05;;;29.30;43.40;;;;;;4922378;29;20036;-93
2021/07/03 12:35:52;;;;;;;4.05;3.40;;;29.70;43.80;;;;;;4921300;29;20032;-95
2021/07/03 12:38:29;;;;;;;3.47;3.17;;;29.80;43.70;;;;;;4924161;29;20084;-92
2021/07/03 12:40:55;;;;;;;3.90;3.42;;;29.80;43.90;;;;;;4916908;29;20028;-93
2021/07/03 12:43:33;;;;;;;4.45;3.58;;;29.90;43.90;;;;;;4916781;29;20028;-93
2021/07/03 12:46:01;;;;;;;3.35;3.05;;;29.70;43.50;;;;;;4912629;29;20080;-90